Latest Weather Observations for Busselton Jetty

IDW60801

Issued at 11:14 pm WST Saturday 23 January 2021 (issued every 10 minutes, with the page automatically refreshed every 10 minutes)

About weather observations | Map of weather stations | Latest weather observations for WA | Other Formats
Station Details ID: 009937 Name: BUSSELTON JETTY Lat: -33.63 Lon: 115.34 Height: 3.0 m
Data from the previous 72 hours. | See also: Recent months at Busselton Jetty
Date/Time
WST
Temp
°C
App
Temp
°C
Dew
Point
°C
Rel
Hum
%
Delta-T
°C
Wind Press
QNH
hPa
Press
MSL
hPa
Rain since
9am
mm
Dir  Spd
km/h
Gust
km/h
Spd
kts
Gust
kts
23/11:00pm - - - - - SSE 7 9 4 5 - - -
23/10:30pm - - - - - S 9 11 5 6 - - -
23/10:00pm - - - - - SSW 13 17 7 9 - - -
23/09:30pm - - - - - SSW 13 15 7 8 - - -
23/09:00pm - - - - - SSW 17 20 9 11 - - -
23/08:30pm - - - - - SW 24 30 13 16 - - -
23/08:00pm - - - - - SW 26 32 14 17 - - -
23/07:30pm - - - - - SW 28 33 15 18 - - -
23/07:00pm - - - - - SW 33 39 18 21 - - -
23/06:30pm - - - - - SW 35 41 19 22 - - -
23/06:00pm - - - - - SW 37 41 20 22 - - -
23/05:30pm - - - - - WSW 35 46 19 25 - - -
23/05:00pm - - - - - WSW 35 41 19 22 - - -
23/04:30pm - - - - - WSW 39 46 21 25 - - -
23/04:00pm - - - - - W 37 41 20 22 - - -
23/03:30pm - - - - - W 35 41 19 22 - - -
23/03:00pm - - - - - W 30 35 16 19 - - -
23/02:30pm - - - - - WSW 24 30 13 16 - - -
23/02:00pm - - - - - WSW 30 35 16 19 - - -
23/01:30pm - - - - - WSW 28 33 15 18 - - -
23/01:00pm - - - - - WSW 28 35 15 19 - - -
23/12:30pm - - - - - WSW 28 33 15 18 - - -
23/12:00pm - - - - - SW 24 33 13 18 - - -
23/11:30am - - - - - SW 28 33 15 18 - - -
23/11:00am - - - - - WSW 32 37 17 20 - - -
23/10:30am - - - - - SW 32 39 17 21 - - -
23/10:00am - - - - - SW 30 35 16 19 - - -
23/09:30am - - - - - SW 22 28 12 15 - - -
23/09:00am - - - - - SW 20 30 11 16 - - -
23/08:30am - - - - - SSW 22 26 12 14 - - -
23/08:00am - - - - - S 19 26 10 14 - - -
23/07:30am - - - - - S 24 28 13 15 - - -
23/07:00am - - - - - SSW 22 28 12 15 - - -
23/06:30am - - - - - SSW 20 28 11 15 - - -
23/06:00am - - - - - S 17 19 9 10 - - -
23/05:30am - - - - - SSW 15 19 8 10 - - -
23/05:00am - - - - - SW 20 26 11 14 - - -
23/04:30am - - - - - S 11 13 6 7 - - -
23/04:00am - - - - - S 15 19 8 10 - - -
23/03:30am - - - - - SSW 17 20 9 11 - - -
23/03:00am - - - - - S 17 20 9 11 - - -
23/02:30am - - - - - S 24 28 13 15 - - -
23/02:00am - - - - - S 24 30 13 16 - - -
23/01:30am - - - - - SSW 24 30 13 16 - - -
23/01:00am - - - - - SSW 24 28 13 15 - - -
23/12:30am - - - - - SSW 17 19 9 10 - - -
23/12:00am - - - - - SSW 15 17 8 9 - - -
 
Date/Time
WST
Temp
°C
App
Temp
°C
Dew
Point
°C
Rel
Hum
%
Delta-T
°C
Wind Press
QNH
hPa
Press
MSL
hPa
Rain since
9am
mm
Dir  Spd
km/h
Gust
km/h
Spd
kts
Gust
kts
22/11:30pm - - - - - S 15 19 8 10 - - -
22/11:00pm - - - - - S 15 17 8 9 - - -
22/10:30pm - - - - - SSW 13 17 7 9 - - -
22/10:00pm - - - - - SSE 11 13 6 7 - - -
22/09:30pm - - - - - SSE 13 17 7 9 - - -
22/09:00pm - - - - - SSE 19 24 10 13 - - -
22/08:30pm - - - - - S 19 26 10 14 - - -
22/08:00pm - - - - - S 26 33 14 18 - - -
22/07:30pm - - - - - S 30 35 16 19 - - -
22/07:00pm - - - - - S 30 33 16 18 - - -
22/06:30pm - - - - - S 32 37 17 20 - - -
22/06:00pm - - - - - SSW 30 37 16 20 - - -
22/05:30pm - - - - - SSW 28 35 15 19 - - -
22/05:00pm - - - - - SW 33 39 18 21 - - -
22/04:30pm - - - - - SW 32 37 17 20 - - -
22/04:00pm - - - - - WSW 30 35 16 19 - - -
22/03:30pm - - - - - WSW 28 33 15 18 - - -
22/03:00pm - - - - - W 32 35 17 19 - - -
22/02:30pm - - - - - WNW 30 33 16 18 - - -
22/02:00pm - - - - - NW 30 32 16 17 - - -
22/01:30pm - - - - - WNW 28 32 15 17 - - -
22/01:00pm - - - - - WNW 24 28 13 15 - - -
22/12:30pm - - - - - NW 24 28 13 15 - - -
22/12:00pm - - - - - NW 19 20 10 11 - - -
22/11:30am - - - - - NW 15 15 8 8 - - -
22/11:00am - - - - - NW 13 13 7 7 - - -
22/10:30am - - - - - WNW 11 11 6 6 - - -
22/10:00am - - - - - WNW 11 13 6 7 - - -
22/09:30am - - - - - WNW 7 9 4 5 - - -
22/09:00am - - - - - SSE 6 9 3 5 - - -
22/08:30am - - - - - ESE 11 15 6 8 - - -
22/08:00am - - - - - E 15 19 8 10 - - -
22/07:30am - - - - - SE 13 15 7 8 - - -
22/07:00am - - - - - SSE 11 15 6 8 - - -
22/06:30am - - - - - S 13 13 7 7 - - -
22/06:00am - - - - - SE 13 17 7 9 - - -
22/05:30am - - - - - E 19 26 10 14 - - -
22/05:00am - - - - - E 20 28 11 15 - - -
22/04:30am - - - - - E 19 26 10 14 - - -
22/04:00am - - - - - E 17 24 9 13 - - -
22/03:30am - - - - - ESE 17 22 9 12 - - -
22/03:00am - - - - - ESE 17 19 9 10 - - -
22/02:30am - - - - - SSE 19 22 10 12 - - -
22/02:00am - - - - - SE 15 19 8 10 - - -
22/01:30am - - - - - SE 19 24 10 13 - - -
22/01:00am - - - - - SE 19 26 10 14 - - -
22/12:30am - - - - - SE 13 19 7 10 - - -
22/12:00am - - - - - SE 20 28 11 15 - - -
 
Date/Time
WST
Temp
°C
App
Temp
°C
Dew
Point
°C
Rel
Hum
%
Delta-T
°C
Wind Press
QNH
hPa
Press
MSL
hPa
Rain since
9am
mm
Dir  Spd
km/h
Gust
km/h
Spd
kts
Gust
kts
21/11:30pm - - - - - SE 26 32 14 17 - - -
21/11:00pm - - - - - SE 26 32 14 17 - - -
21/10:30pm - - - - - SE 24 30 13 16 - - -
21/10:00pm - - - - - SE 28 33 15 18 - - -
21/09:30pm - - - - - SSE 32 39 17 21 - - -
21/09:00pm - - - - - SSE 30 37 16 20 - - -
21/08:30pm - - - - - SSE 32 39 17 21 - - -
21/08:00pm - - - - - SSE 33 41 18 22 - - -
21/07:30pm - - - - - S 37 48 20 26 - - -
21/07:00pm - - - - - S 39 48 21 26 - - -
21/06:30pm - - - - - S 39 50 21 27 - - -
21/06:00pm - - - - - S 39 48 21 26 - - -
21/05:30pm - - - - - S 37 48 20 26 - - -
21/05:00pm - - - - - S 37 44 20 24 - - -
21/04:30pm - - - - - SSW 37 46 20 25 - - -
21/04:00pm - - - - - S 37 50 20 27 - - -
21/03:30pm - - - - - S 37 46 20 25 - - -
21/03:00pm - - - - - SSW 35 48 19 26 - - -
21/02:58pm - - - - - SSW 37 48 20 26 - - -
21/02:30pm - - - - - S 24 41 13 22 - - -
21/02:00pm - - - - - S 20 32 11 17 - - -
21/01:30pm - - - - - NNE 9 17 5 9 - - -
21/01:00pm - - - - - ESE 7 9 4 5 - - -
21/12:30pm - - - - - SE 11 15 6 8 - - -
21/12:00pm - - - - - SE 9 15 5 8 - - -
21/11:30am - - - - - SSE 11 20 6 11 - - -
21/11:00am - - - - - SE 19 24 10 13 - - -
21/10:30am - - - - - ESE 13 17 7 9 - - -
21/10:00am - - - - - SE 20 32 11 17 - - -
21/09:30am - - - - - SE 24 32 13 17 - - -
21/09:00am - - - - - SE 26 33 14 18 - - -
21/08:30am - - - - - SSE 22 32 12 17 - - -
21/08:00am - - - - - SSE 26 32 14 17 - - -
21/07:30am - - - - - SE 28 33 15 18 - - -
21/07:00am - - - - - SE 22 30 12 16 - - -
21/06:30am - - - - - SE 20 26 11 14 - - -
21/06:00am - - - - - SE 20 26 11 14 - - -
21/05:30am - - - - - SSE 28 33 15 18 - - -
21/05:00am - - - - - SSE 26 32 14 17 - - -
21/04:30am - - - - - SSE 28 33 15 18 - - -
21/04:00am - - - - - SSE 22 30 12 16 - - -
21/03:30am - - - - - SSE 22 30 12 16 - - -
21/03:00am - - - - - SSE 20 28 11 15 - - -
21/02:30am - - - - - SSE 24 32 13 17 - - -
21/02:00am - - - - - SSE 24 32 13 17 - - -
21/01:30am - - - - - SSE 32 39 17 21 - - -
21/01:00am - - - - - SSE 32 41 17 22 - - -
21/12:30am - - - - - SSE 26 35 14 19 - - -
21/12:00am - - - - - SSE 26 33 14 18 - - -
 
Date/Time
WST
Temp
°C
App
Temp
°C
Dew
Point
°C
Rel
Hum
%
Delta-T
°C
Wind Press
QNH
hPa
Press
MSL
hPa
Rain since
9am
mm
Dir  Spd
km/h
Gust
km/h
Spd
kts
Gust
kts
20/11:30pm - - - - - SSE 28 37 15 20 - - -

Other formats

Comma delimited format used in spreadsheet applications
http://www.bom.gov.au/fwo/IDW60801/IDW60801.95602.axf

JavaScript Object Notation format (JSON) in row-major order
http://www.bom.gov.au/fwo/IDW60801/IDW60801.95602.json

Data quality

Most of these data are generated automatically and are frequently updated. Quality checks on data are not normally performed. It is possible for incorrect values to appear. Refer to information at About Latest Weather Observations and please check the disclaimer before using these data.